Terminal Aerodrome Forecast
Issued by NWS Greer, SC

Home | Current Version | Previous Version | Text Only | Print | Product List | Glossary On
Versions: 1 2 3 4 5 6 7 8 9 10 11 12 13 14 15 16
000
FTUS42 KGSP 301130
TAFGSP
TAF
KGSP 301130Z 3012/3112 00000KT P6SM OVC100
     FM301600 13006KT P6SM OVC250
     FM302200 07007KT P6SM VCSH SCT040 OVC050
     FM310300 05004KT 6SM -SHRA BR BKN025
     FM311000 00000KT 5SM BR BKN008=

USA.gov is the U.S. government's official web portal to all federal, state and local government web resources and services.